sensor_id;sensor_type;location;lat;lon;timestamp;P1;durP1;ratioP1;P2;durP2;ratioP2
61373;SDS011;47242;48.158;-1.586;2023-06-22T04:32:34;6.15;;;3.20;;
61373;SDS011;47242;48.158;-1.586;2023-06-22T04:35:01;5.25;;;2.83;;
61373;SDS011;47242;48.158;-1.586;2023-06-22T04:37:31;5.53;;;3.05;;
61373;SDS011;47242;48.158;-1.586;2023-06-22T04:39:57;6.40;;;3.13;;
61373;SDS011;47242;48.158;-1.586;2023-06-22T04:42:23;6.30;;;3.00;;
61373;SDS011;47242;48.158;-1.586;2023-06-22T04:44:51;5.55;;;3.15;;
61373;SDS011;47242;48.158;-1.586;2023-06-22T04:47:16;6.47;;;2.97;;
61373;SDS011;47242;48.158;-1.586;2023-06-22T04:49:42;5.43;;;2.60;;
61373;SDS011;47242;48.158;-1.586;2023-06-22T04:52:08;6.00;;;2.90;;
61373;SDS011;47242;48.158;-1.586;2023-06-22T04:54:36;7.97;;;2.92;;
61373;SDS011;47242;48.158;-1.586;2023-06-22T04:57:04;7.00;;;3.03;;
61373;SDS011;47242;48.158;-1.586;2023-06-22T04:59:35;4.80;;;2.70;;
61373;SDS011;47242;48.158;-1.586;2023-06-22T05:02:01;6.38;;;3.13;;
61373;SDS011;47242;48.158;-1.586;2023-06-22T05:04:28;6.50;;;2.97;;
61373;SDS011;47242;48.158;-1.586;2023-06-22T05:06:57;7.78;;;2.72;;
61373;SDS011;47242;48.158;-1.586;2023-06-22T05:09:25;6.25;;;3.50;;
61373;SDS011;47242;48.158;-1.586;2023-06-22T05:11:51;7.00;;;3.17;;
61373;SDS011;47242;48.158;-1.586;2023-06-22T05:14:17;7.90;;;3.00;;
61373;SDS011;47242;48.158;-1.586;2023-06-22T05:16:44;5.85;;;2.70;;
61373;SDS011;47242;48.158;-1.586;2023-06-22T05:19:10;7.22;;;3.30;;
61373;SDS011;47242;48.158;-1.586;2023-06-22T05:21:37;5.22;;;2.75;;
61373;SDS011;47242;48.158;-1.586;2023-06-22T05:24:04;5.90;;;3.15;;
61373;SDS011;47242;48.158;-1.586;2023-06-22T05:26:30;7.65;;;3.13;;
61373;SDS011;47242;48.158;-1.586;2023-06-22T05:28:57;6.22;;;3.10;;
61373;SDS011;47242;48.158;-1.586;2023-06-22T05:31:24;6.07;;;3.40;;
61373;SDS011;47242;48.158;-1.586;2023-06-22T05:33:51;6.47;;;3.72;;
61373;SDS011;47242;48.158;-1.586;2023-06-22T05:36:18;5.93;;;3.45;;
61373;SDS011;47242;48.158;-1.586;2023-06-22T05:38:49;5.85;;;2.95;;
61373;SDS011;47242;48.158;-1.586;2023-06-22T05:41:15;5.70;;;3.15;;
61373;SDS011;47242;48.158;-1.586;2023-06-22T05:43:41;6.40;;;3.28;;
61373;SDS011;47242;48.158;-1.586;2023-06-22T05:46:07;7.25;;;3.33;;
61373;SDS011;47242;48.158;-1.586;2023-06-22T05:48:32;6.20;;;3.20;;
61373;SDS011;47242;48.158;-1.586;2023-06-22T05:50:58;7.60;;;2.92;;
61373;SDS011;47242;48.158;-1.586;2023-06-22T05:53:24;7.95;;;2.85;;
61373;SDS011;47242;48.158;-1.586;2023-06-22T05:55:49;7.88;;;2.95;;
61373;SDS011;47242;48.158;-1.586;2023-06-22T05:58:15;5.65;;;2.60;;
61373;SDS011;47242;48.158;-1.586;2023-06-22T06:00:41;5.13;;;2.67;;
61373;SDS011;47242;48.158;-1.586;2023-06-22T06:03:08;6.05;;;2.80;;
61373;SDS011;47242;48.158;-1.586;2023-06-22T06:05:35;5.07;;;2.70;;
61373;SDS011;47242;48.158;-1.586;2023-06-22T06:08:01;6.78;;;3.03;;
61373;SDS011;47242;48.158;-1.586;2023-06-22T06:10:30;7.82;;;3.15;;
61373;SDS011;47242;48.158;-1.586;2023-06-22T06:12:56;6.60;;;2.50;;
61373;SDS011;47242;48.158;-1.586;2023-06-22T06:15:23;7.47;;;2.80;;
61373;SDS011;47242;48.158;-1.586;2023-06-22T06:17:52;4.75;;;2.60;;
61373;SDS011;47242;48.158;-1.586;2023-06-22T06:20:19;6.38;;;2.70;;
61373;SDS011;47242;48.158;-1.586;2023-06-22T06:22:46;6.68;;;2.63;;
61373;SDS011;47242;48.158;-1.586;2023-06-22T06:25:12;7.43;;;3.00;;
61373;SDS011;47242;48.158;-1.586;2023-06-22T06:27:44;5.88;;;2.63;;
61373;SDS011;47242;48.158;-1.586;2023-06-22T06:30:11;6.20;;;2.78;;
61373;SDS011;47242;48.158;-1.586;2023-06-22T06:32:37;5.82;;;2.80;;
61373;SDS011;47242;48.158;-1.586;2023-06-22T06:35:07;5.45;;;2.72;;
61373;SDS011;47242;48.158;-1.586;2023-06-22T06:37:40;7.07;;;3.03;;
61373;SDS011;47242;48.158;-1.586;2023-06-22T06:40:09;6.30;;;3.10;;
61373;SDS011;47242;48.158;-1.586;2023-06-22T06:42:37;6.82;;;2.70;;
61373;SDS011;47242;48.158;-1.586;2023-06-22T06:45:05;5.55;;;2.70;;
61373;SDS011;47242;48.158;-1.586;2023-06-22T06:47:32;6.43;;;2.45;;
61373;SDS011;47242;48.158;-1.586;2023-06-22T06:49:57;5.78;;;2.72;;
61373;SDS011;47242;48.158;-1.586;2023-06-22T06:52:23;5.00;;;2.80;;
61373;SDS011;47242;48.158;-1.586;2023-06-22T06:54:48;6.25;;;2.95;;
61373;SDS011;47242;48.158;-1.586;2023-06-22T06:57:16;5.47;;;2.40;;
61373;SDS011;47242;48.158;-1.586;2023-06-22T06:59:42;4.93;;;2.67;;
61373;SDS011;47242;48.158;-1.586;2023-06-22T07:02:08;6.32;;;2.70;;
61373;SDS011;47242;48.158;-1.586;2023-06-22T07:04:34;7.10;;;2.88;;
61373;SDS011;47242;48.158;-1.586;2023-06-22T07:07:00;4.60;;;2.60;;
61373;SDS011;47242;48.158;-1.586;2023-06-22T07:09:26;4.25;;;2.45;;
61373;SDS011;47242;48.158;-1.586;2023-06-22T07:11:52;4.57;;;2.60;;
61373;SDS011;47242;48.158;-1.586;2023-06-22T07:14:18;7.68;;;2.60;;
61373;SDS011;47242;48.158;-1.586;2023-06-22T07:16:44;4.88;;;2.88;;
61373;SDS011;47242;48.158;-1.586;2023-06-22T07:19:11;8.50;;;2.70;;
61373;SDS011;47242;48.158;-1.586;2023-06-22T07:21:37;4.55;;;2.58;;
61373;SDS011;47242;48.158;-1.586;2023-06-22T07:24:04;6.20;;;2.97;;
61373;SDS011;47242;48.158;-1.586;2023-06-22T07:26:31;6.75;;;2.85;;
61373;SDS011;47242;48.158;-1.586;2023-06-22T07:28:57;5.88;;;2.80;;
61373;SDS011;47242;48.158;-1.586;2023-06-22T07:31:26;6.95;;;2.67;;
61373;SDS011;47242;48.158;-1.586;2023-06-22T07:33:52;4.68;;;2.20;;
61373;SDS011;47242;48.158;-1.586;2023-06-22T07:36:17;6.43;;;2.85;;
61373;SDS011;47242;48.158;-1.586;2023-06-22T07:38:44;6.32;;;2.30;;
61373;SDS011;47242;48.158;-1.586;2023-06-22T07:41:09;7.40;;;2.55;;
61373;SDS011;47242;48.158;-1.586;2023-06-22T07:43:35;3.92;;;2.47;;
61373;SDS011;47242;48.158;-1.586;2023-06-22T07:46:05;5.88;;;2.40;;
61373;SDS011;47242;48.158;-1.586;2023-06-22T07:48:31;4.78;;;2.60;;
61373;SDS011;47242;48.158;-1.586;2023-06-22T07:50:57;5.13;;;2.30;;
61373;SDS011;47242;48.158;-1.586;2023-06-22T07:53:22;4.45;;;2.58;;
61373;SDS011;47242;48.158;-1.586;2023-06-22T07:55:49;6.32;;;2.50;;
61373;SDS011;47242;48.158;-1.586;2023-06-22T07:58:15;5.75;;;3.17;;
61373;SDS011;47242;48.158;-1.586;2023-06-22T08:00:41;5.35;;;2.65;;
61373;SDS011;47242;48.158;-1.586;2023-06-22T08:03:06;5.05;;;2.50;;
61373;SDS011;47242;48.158;-1.586;2023-06-22T08:05:32;5.93;;;2.90;;
61373;SDS011;47242;48.158;-1.586;2023-06-22T08:07:58;4.78;;;2.70;;
61373;SDS011;47242;48.158;-1.586;2023-06-22T08:10:24;4.93;;;2.67;;
61373;SDS011;47242;48.158;-1.586;2023-06-22T08:12:50;4.93;;;2.50;;
61373;SDS011;47242;48.158;-1.586;2023-06-22T08:15:17;3.88;;;2.53;;
61373;SDS011;47242;48.158;-1.586;2023-06-22T08:17:43;4.40;;;2.63;;
61373;SDS011;47242;48.158;-1.586;2023-06-22T08:20:10;4.57;;;2.45;;
61373;SDS011;47242;48.158;-1.586;2023-06-22T08:22:39;4.00;;;2.60;;
61373;SDS011;47242;48.158;-1.586;2023-06-22T08:25:06;4.20;;;2.55;;
61373;SDS011;47242;48.158;-1.586;2023-06-22T08:27:32;5.32;;;2.35;;
61373;SDS011;47242;48.158;-1.586;2023-06-22T08:29:58;4.35;;;2.20;;
61373;SDS011;47242;48.158;-1.586;2023-06-22T08:32:25;4.70;;;2.58;;
61373;SDS011;47242;48.158;-1.586;2023-06-22T08:34:54;5.57;;;2.50;;
61373;SDS011;47242;48.158;-1.586;2023-06-22T08:37:20;3.92;;;2.20;;
61373;SDS011;47242;48.158;-1.586;2023-06-22T08:39:48;4.63;;;2.50;;
61373;SDS011;47242;48.158;-1.586;2023-06-22T08:42:15;4.53;;;2.80;;
61373;SDS011;47242;48.158;-1.586;2023-06-22T08:44:41;3.88;;;2.45;;
61373;SDS011;47242;48.158;-1.586;2023-06-22T08:47:06;4.82;;;2.67;;
61373;SDS011;47242;48.158;-1.586;2023-06-22T08:49:32;4.88;;;2.55;;
61373;SDS011;47242;48.158;-1.586;2023-06-22T08:51:58;4.63;;;2.33;;
61373;SDS011;47242;48.158;-1.586;2023-06-22T08:54:23;4.90;;;2.67;;
61373;SDS011;47242;48.158;-1.586;2023-06-22T08:56:49;3.80;;;2.50;;
61373;SDS011;47242;48.158;-1.586;2023-06-22T08:59:15;4.25;;;2.72;;
61373;SDS011;47242;48.158;-1.586;2023-06-22T09:01:41;4.75;;;2.60;;
61373;SDS011;47242;48.158;-1.586;2023-06-22T09:04:10;5.80;;;2.63;;
61373;SDS011;47242;48.158;-1.586;2023-06-22T09:06:36;4.22;;;2.72;;
61373;SDS011;47242;48.158;-1.586;2023-06-22T09:09:06;3.42;;;2.45;;
61373;SDS011;47242;48.158;-1.586;2023-06-22T09:11:32;3.80;;;2.67;;
61373;SDS011;47242;48.158;-1.586;2023-06-22T09:13:57;5.95;;;2.70;;
61373;SDS011;47242;48.158;-1.586;2023-06-22T09:16:23;3.55;;;2.40;;
61373;SDS011;47242;48.158;-1.586;2023-06-22T09:18:48;4.20;;;2.80;;
61373;SDS011;47242;48.158;-1.586;2023-06-22T09:21:14;3.22;;;2.70;;
61373;SDS011;47242;48.158;-1.586;2023-06-22T09:23:40;4.97;;;2.75;;
61373;SDS011;47242;48.158;-1.586;2023-06-22T09:26:05;4.32;;;2.55;;
61373;SDS011;47242;48.158;-1.586;2023-06-22T09:28:31;3.88;;;2.90;;
61373;SDS011;47242;48.158;-1.586;2023-06-22T09:30:58;4.03;;;2.50;;
61373;SDS011;47242;48.158;-1.586;2023-06-22T09:33:25;3.95;;;2.90;;
61373;SDS011;47242;48.158;-1.586;2023-06-22T09:35:51;3.72;;;2.70;;
61373;SDS011;47242;48.158;-1.586;2023-06-22T09:38:17;4.07;;;2.72;;
61373;SDS011;47242;48.158;-1.586;2023-06-22T09:40:43;4.30;;;2.92;;
61373;SDS011;47242;48.158;-1.586;2023-06-22T09:43:08;4.82;;;3.13;;
61373;SDS011;47242;48.158;-1.586;2023-06-22T09:45:34;3.88;;;2.70;;
61373;SDS011;47242;48.158;-1.586;2023-06-22T09:48:00;4.18;;;2.80;;
61373;SDS011;47242;48.158;-1.586;2023-06-22T09:50:25;3.40;;;2.92;;
61373;SDS011;47242;48.158;-1.586;2023-06-22T09:52:51;4.25;;;3.15;;
61373;SDS011;47242;48.158;-1.586;2023-06-22T09:55:20;3.47;;;2.50;;
61373;SDS011;47242;48.158;-1.586;2023-06-22T09:57:46;4.72;;;2.78;;
61373;SDS011;47242;48.158;-1.586;2023-06-22T10:00:12;7.18;;;3.00;;
61373;SDS011;47242;48.158;-1.586;2023-06-22T10:02:39;4.40;;;3.03;;
61373;SDS011;47242;48.158;-1.586;2023-06-22T10:05:06;4.93;;;3.00;;
61373;SDS011;47242;48.158;-1.586;2023-06-22T10:07:32;5.30;;;3.08;;
61373;SDS011;47242;48.158;-1.586;2023-06-22T10:09:58;5.38;;;3.05;;
61373;SDS011;47242;48.158;-1.586;2023-06-22T10:12:24;5.07;;;2.97;;
61373;SDS011;47242;48.158;-1.586;2023-06-22T10:14:50;3.78;;;2.80;;
61373;SDS011;47242;48.158;-1.586;2023-06-22T10:17:16;4.35;;;2.92;;
61373;SDS011;47242;48.158;-1.586;2023-06-22T10:19:42;3.78;;;2.80;;
61373;SDS011;47242;48.158;-1.586;2023-06-22T10:22:07;4.47;;;2.80;;
61373;SDS011;47242;48.158;-1.586;2023-06-22T10:24:33;4.20;;;2.85;;
61373;SDS011;47242;48.158;-1.586;2023-06-22T10:26:58;4.38;;;2.58;;
61373;SDS011;47242;48.158;-1.586;2023-06-22T10:29:24;4.60;;;3.08;;
61373;SDS011;47242;48.158;-1.586;2023-06-22T10:31:50;3.97;;;2.63;;
61373;SDS011;47242;48.158;-1.586;2023-06-22T10:34:15;5.90;;;3.00;;
61373;SDS011;47242;48.158;-1.586;2023-06-22T10:36:41;4.50;;;2.60;;
61373;SDS011;47242;48.158;-1.586;2023-06-22T10:39:06;4.53;;;2.33;;
61373;SDS011;47242;48.158;-1.586;2023-06-22T10:41:32;4.38;;;2.42;;
61373;SDS011;47242;48.158;-1.586;2023-06-22T10:43:58;4.07;;;2.35;;
61373;SDS011;47242;48.158;-1.586;2023-06-22T10:46:24;4.30;;;2.25;;
61373;SDS011;47242;48.158;-1.586;2023-06-22T10:48:50;3.90;;;2.20;;
61373;SDS011;47242;48.158;-1.586;2023-06-22T10:51:19;4.80;;;2.58;;
61373;SDS011;47242;48.158;-1.586;2023-06-22T10:53:44;4.05;;;2.70;;
61373;SDS011;47242;48.158;-1.586;2023-06-22T10:56:10;4.88;;;2.50;;
61373;SDS011;47242;48.158;-1.586;2023-06-22T10:58:36;4.63;;;2.10;;
61373;SDS011;47242;48.158;-1.586;2023-06-22T11:01:01;4.85;;;2.67;;
61373;SDS011;47242;48.158;-1.586;2023-06-22T11:03:28;6.03;;;2.67;;
61373;SDS011;47242;48.158;-1.586;2023-06-22T11:05:54;4.32;;;2.40;;
61373;SDS011;47242;48.158;-1.586;2023-06-22T11:08:19;5.57;;;2.60;;
61373;SDS011;47242;48.158;-1.586;2023-06-22T11:10:45;4.50;;;2.60;;
61373;SDS011;47242;48.158;-1.586;2023-06-22T11:13:11;5.38;;;2.70;;
61373;SDS011;47242;48.158;-1.586;2023-06-22T11:15:36;5.78;;;2.80;;
61373;SDS011;47242;48.158;-1.586;2023-06-22T11:18:02;5.15;;;2.30;;
61373;SDS011;47242;48.158;-1.586;2023-06-22T11:20:30;3.75;;;2.30;;
61373;SDS011;47242;48.158;-1.586;2023-06-22T11:22:56;6.00;;;2.47;;
61373;SDS011;47242;48.158;-1.586;2023-06-22T11:25:21;5.00;;;2.47;;
61373;SDS011;47242;48.158;-1.586;2023-06-22T11:27:47;4.15;;;2.67;;
61373;SDS011;47242;48.158;-1.586;2023-06-22T11:30:13;4.72;;;2.90;;
61373;SDS011;47242;48.158;-1.586;2023-06-22T11:32:38;5.70;;;2.60;;
61373;SDS011;47242;48.158;-1.586;2023-06-22T11:35:04;5.50;;;2.60;;
61373;SDS011;47242;48.158;-1.586;2023-06-22T11:37:30;4.72;;;2.50;;
61373;SDS011;47242;48.158;-1.586;2023-06-22T11:39:55;6.07;;;2.38;;
61373;SDS011;47242;48.158;-1.586;2023-06-22T11:42:21;4.40;;;2.35;;
61373;SDS011;47242;48.158;-1.586;2023-06-22T11:44:48;4.50;;;2.30;;
61373;SDS011;47242;48.158;-1.586;2023-06-22T11:47:14;5.25;;;2.42;;
61373;SDS011;47242;48.158;-1.586;2023-06-22T11:49:40;4.78;;;2.60;;
61373;SDS011;47242;48.158;-1.586;2023-06-22T11:52:06;3.75;;;2.30;;
61373;SDS011;47242;48.158;-1.586;2023-06-22T11:54:32;4.97;;;2.42;;
61373;SDS011;47242;48.158;-1.586;2023-06-22T11:56:58;4.80;;;2.25;;
61373;SDS011;47242;48.158;-1.586;2023-06-22T11:59:24;5.57;;;2.80;;
61373;SDS011;47242;48.158;-1.586;2023-06-22T12:01:50;4.50;;;2.63;;
61373;SDS011;47242;48.158;-1.586;2023-06-22T12:04:16;4.63;;;2.53;;
61373;SDS011;47242;48.158;-1.586;2023-06-22T12:06:42;4.20;;;2.38;;
61373;SDS011;47242;48.158;-1.586;2023-06-22T12:09:08;4.40;;;2.70;;
61373;SDS011;47242;48.158;-1.586;2023-06-22T12:11:35;4.32;;;2.38;;
61373;SDS011;47242;48.158;-1.586;2023-06-22T12:14:00;5.40;;;2.38;;
61373;SDS011;47242;48.158;-1.586;2023-06-22T12:16:30;5.82;;;2.72;;
61373;SDS011;47242;48.158;-1.586;2023-06-22T12:18:56;4.63;;;2.55;;
61373;SDS011;47242;48.158;-1.586;2023-06-22T12:21:21;6.13;;;2.63;;
61373;SDS011;47242;48.158;-1.586;2023-06-22T12:23:47;4.70;;;2.75;;
61373;SDS011;47242;48.158;-1.586;2023-06-22T12:26:13;6.05;;;2.75;;
61373;SDS011;47242;48.158;-1.586;2023-06-22T12:28:38;5.70;;;2.63;;
61373;SDS011;47242;48.158;-1.586;2023-06-22T12:31:04;4.10;;;2.55;;
61373;SDS011;47242;48.158;-1.586;2023-06-22T12:33:30;4.80;;;2.72;;
61373;SDS011;47242;48.158;-1.586;2023-06-22T12:35:55;4.50;;;2.70;;
61373;SDS011;47242;48.158;-1.586;2023-06-22T12:38:21;4.70;;;2.60;;
61373;SDS011;47242;48.158;-1.586;2023-06-22T12:40:47;4.15;;;2.67;;
61373;SDS011;47242;48.158;-1.586;2023-06-22T12:43:14;6.78;;;2.95;;
61373;SDS011;47242;48.158;-1.586;2023-06-22T12:45:40;5.20;;;2.50;;
61373;SDS011;47242;48.158;-1.586;2023-06-22T12:48:06;5.43;;;2.60;;
61373;SDS011;47242;48.158;-1.586;2023-06-22T12:50:31;6.00;;;2.95;;
61373;SDS011;47242;48.158;-1.586;2023-06-22T12:52:57;5.38;;;2.80;;
61373;SDS011;47242;48.158;-1.586;2023-06-22T12:55:23;6.30;;;2.80;;
61373;SDS011;47242;48.158;-1.586;2023-06-22T12:57:48;5.88;;;3.10;;
61373;SDS011;47242;48.158;-1.586;2023-06-22T13:00:14;5.72;;;2.80;;
61373;SDS011;47242;48.158;-1.586;2023-06-22T13:02:40;5.25;;;2.90;;
61373;SDS011;47242;48.158;-1.586;2023-06-22T13:05:06;5.68;;;3.00;;
61373;SDS011;47242;48.158;-1.586;2023-06-22T13:07:31;4.55;;;2.70;;
61373;SDS011;47242;48.158;-1.586;2023-06-22T13:09:57;4.13;;;2.72;;
61373;SDS011;47242;48.158;-1.586;2023-06-22T13:12:23;4.55;;;2.72;;
61373;SDS011;47242;48.158;-1.586;2023-06-22T13:14:48;5.57;;;2.90;;
61373;SDS011;47242;48.158;-1.586;2023-06-22T13:17:14;6.10;;;3.00;;
61373;SDS011;47242;48.158;-1.586;2023-06-22T13:19:40;6.45;;;2.95;;
61373;SDS011;47242;48.158;-1.586;2023-06-22T13:24:58;4.72;;;2.92;;
61373;SDS011;47242;48.158;-1.586;2023-06-22T13:27:25;3.97;;;2.70;;
61373;SDS011;47242;48.158;-1.586;2023-06-22T13:29:50;4.88;;;2.85;;
61373;SDS011;47242;48.158;-1.586;2023-06-22T13:32:17;5.32;;;3.10;;
61373;SDS011;47242;48.158;-1.586;2023-06-22T13:34:43;5.22;;;3.30;;
61373;SDS011;47242;48.158;-1.586;2023-06-22T13:37:09;5.15;;;3.08;;
61373;SDS011;47242;48.158;-1.586;2023-06-22T13:39:34;5.00;;;2.78;;
61373;SDS011;47242;48.158;-1.586;2023-06-22T13:42:00;4.30;;;2.70;;
61373;SDS011;47242;48.158;-1.586;2023-06-22T13:44:26;4.03;;;2.65;;
61373;SDS011;47242;48.158;-1.586;2023-06-22T13:46:54;4.05;;;2.50;;
61373;SDS011;47242;48.158;-1.586;2023-06-22T13:49:20;4.95;;;2.55;;
61373;SDS011;47242;48.158;-1.586;2023-06-22T13:51:46;7.85;;;2.72;;
61373;SDS011;47242;48.158;-1.586;2023-06-22T13:54:13;5.35;;;3.10;;
61373;SDS011;47242;48.158;-1.586;2023-06-22T13:56:39;4.53;;;2.60;;
61373;SDS011;47242;48.158;-1.586;2023-06-22T13:59:04;4.93;;;2.22;;
61373;SDS011;47242;48.158;-1.586;2023-06-22T14:01:31;3.78;;;2.38;;
61373;SDS011;47242;48.158;-1.586;2023-06-22T14:03:57;4.93;;;2.50;;
61373;SDS011;47242;48.158;-1.586;2023-06-22T14:06:23;6.65;;;2.70;;
61373;SDS011;47242;48.158;-1.586;2023-06-22T14:08:48;4.43;;;2.33;;
61373;SDS011;47242;48.158;-1.586;2023-06-22T14:11:15;5.20;;;2.50;;
61373;SDS011;47242;48.158;-1.586;2023-06-22T14:13:41;4.65;;;2.40;;
61373;SDS011;47242;48.158;-1.586;2023-06-22T14:16:08;6.40;;;2.30;;
61373;SDS011;47242;48.158;-1.586;2023-06-22T14:18:33;3.80;;;2.33;;
61373;SDS011;47242;48.158;-1.586;2023-06-22T14:20:59;3.85;;;2.13;;
61373;SDS011;47242;48.158;-1.586;2023-06-22T14:23:25;4.97;;;2.35;;
61373;SDS011;47242;48.158;-1.586;2023-06-22T14:25:51;3.80;;;2.20;;
61373;SDS011;47242;48.158;-1.586;2023-06-22T14:28:17;4.82;;;2.25;;
61373;SDS011;47242;48.158;-1.586;2023-06-22T14:30:43;4.90;;;2.50;;
61373;SDS011;47242;48.158;-1.586;2023-06-22T14:33:08;10.07;;;2.75;;
61373;SDS011;47242;48.158;-1.586;2023-06-22T14:35:34;5.72;;;2.72;;
61373;SDS011;47242;48.158;-1.586;2023-06-22T14:38:00;5.72;;;2.30;;
61373;SDS011;47242;48.158;-1.586;2023-06-22T14:42:51;4.25;;;2.40;;
61373;SDS011;47242;48.158;-1.586;2023-06-22T14:45:17;4.03;;;2.03;;
61373;SDS011;47242;48.158;-1.586;2023-06-22T14:47:42;4.45;;;2.42;;
61373;SDS011;47242;48.158;-1.586;2023-06-22T14:50:08;3.25;;;1.90;;
61373;SDS011;47242;48.158;-1.586;2023-06-22T14:52:34;4.50;;;2.35;;
61373;SDS011;47242;48.158;-1.586;2023-06-22T14:54:59;4.30;;;2.40;;
61373;SDS011;47242;48.158;-1.586;2023-06-22T14:57:25;5.43;;;2.08;;
61373;SDS011;47242;48.158;-1.586;2023-06-22T14:59:51;5.22;;;2.13;;
61373;SDS011;47242;48.158;-1.586;2023-06-22T15:02:17;4.25;;;2.00;;
61373;SDS011;47242;48.158;-1.586;2023-06-22T15:04:42;4.53;;;2.28;;
61373;SDS011;47242;48.158;-1.586;2023-06-22T15:07:08;5.25;;;2.20;;
61373;SDS011;47242;48.158;-1.586;2023-06-22T15:09:34;4.43;;;2.13;;
61373;SDS011;47242;48.158;-1.586;2023-06-22T15:11:59;3.50;;;2.00;;
61373;SDS011;47242;48.158;-1.586;2023-06-22T15:14:26;3.72;;;2.08;;
61373;SDS011;47242;48.158;-1.586;2023-06-22T15:16:52;3.63;;;1.98;;
61373;SDS011;47242;48.158;-1.586;2023-06-22T15:19:18;4.60;;;2.00;;
61373;SDS011;47242;48.158;-1.586;2023-06-22T15:21:44;3.95;;;2.15;;
61373;SDS011;47242;48.158;-1.586;2023-06-22T15:24:10;3.05;;;1.80;;
61373;SDS011;47242;48.158;-1.586;2023-06-22T15:26:36;3.75;;;1.75;;
61373;SDS011;47242;48.158;-1.586;2023-06-22T15:29:02;6.00;;;1.90;;
61373;SDS011;47242;48.158;-1.586;2023-06-22T15:31:28;4.10;;;2.03;;
61373;SDS011;47242;48.158;-1.586;2023-06-22T15:33:54;3.88;;;2.03;;
61373;SDS011;47242;48.158;-1.586;2023-06-22T15:36:20;4.10;;;2.10;;
61373;SDS011;47242;48.158;-1.586;2023-06-22T15:38:45;5.18;;;1.83;;
61373;SDS011;47242;48.158;-1.586;2023-06-22T15:41:12;3.58;;;1.80;;
61373;SDS011;47242;48.158;-1.586;2023-06-22T15:43:37;3.85;;;2.00;;
61373;SDS011;47242;48.158;-1.586;2023-06-22T15:46:03;3.55;;;1.80;;
61373;SDS011;47242;48.158;-1.586;2023-06-22T15:48:29;3.80;;;1.98;;
61373;SDS011;47242;48.158;-1.586;2023-06-22T15:50:54;4.15;;;1.90;;
61373;SDS011;47242;48.158;-1.586;2023-06-22T15:53:20;4.10;;;1.80;;
61373;SDS011;47242;48.158;-1.586;2023-06-22T15:55:46;3.63;;;1.80;;
61373;SDS011;47242;48.158;-1.586;2023-06-22T15:58:12;4.07;;;1.80;;
61373;SDS011;47242;48.158;-1.586;2023-06-22T16:00:37;5.07;;;1.80;;
61373;SDS011;47242;48.158;-1.586;2023-06-22T16:03:03;3.38;;;1.77;;
61373;SDS011;47242;48.158;-1.586;2023-06-22T16:05:29;4.22;;;1.98;;
61373;SDS011;47242;48.158;-1.586;2023-06-22T16:07:57;4.28;;;2.10;;
61373;SDS011;47242;48.158;-1.586;2023-06-22T16:10:23;4.90;;;1.90;;
61373;SDS011;47242;48.158;-1.586;2023-06-22T16:12:49;3.10;;;1.70;;
61373;SDS011;47242;48.158;-1.586;2023-06-22T16:15:15;3.83;;;2.03;;
61373;SDS011;47242;48.158;-1.586;2023-06-22T16:17:41;3.88;;;1.80;;
61373;SDS011;47242;48.158;-1.586;2023-06-22T16:20:07;3.30;;;1.88;;
61373;SDS011;47242;48.158;-1.586;2023-06-22T16:22:35;4.28;;;1.80;;
61373;SDS011;47242;48.158;-1.586;2023-06-22T16:25:01;4.10;;;1.90;;
61373;SDS011;47242;48.158;-1.586;2023-06-22T16:27:28;4.35;;;2.03;;
61373;SDS011;47242;48.158;-1.586;2023-06-22T16:29:55;3.50;;;2.00;;
61373;SDS011;47242;48.158;-1.586;2023-06-22T16:32:20;3.75;;;1.92;;
61373;SDS011;47242;48.158;-1.586;2023-06-22T16:34:46;4.35;;;1.95;;
61373;SDS011;47242;48.158;-1.586;2023-06-22T16:37:12;4.00;;;1.92;;
61373;SDS011;47242;48.158;-1.586;2023-06-22T16:39:38;3.00;;;1.65;;
61373;SDS011;47242;48.158;-1.586;2023-06-22T16:42:04;3.53;;;1.95;;
61373;SDS011;47242;48.158;-1.586;2023-06-22T16:44:29;4.05;;;1.92;;
61373;SDS011;47242;48.158;-1.586;2023-06-22T16:46:55;3.63;;;2.00;;
61373;SDS011;47242;48.158;-1.586;2023-06-22T16:49:23;6.45;;;1.90;;
61373;SDS011;47242;48.158;-1.586;2023-06-22T16:51:48;3.78;;;1.80;;
61373;SDS011;47242;48.158;-1.586;2023-06-22T16:54:14;4.03;;;2.05;;
61373;SDS011;47242;48.158;-1.586;2023-06-22T16:56:40;5.43;;;2.20;;
61373;SDS011;47242;48.158;-1.586;2023-06-22T16:59:06;5.22;;;2.85;;
61373;SDS011;47242;48.158;-1.586;2023-06-22T17:01:32;3.53;;;2.13;;
61373;SDS011;47242;48.158;-1.586;2023-06-22T17:06:32;5.80;;;2.35;;
61373;SDS011;47242;48.158;-1.586;2023-06-22T17:08:59;3.80;;;2.28;;
61373;SDS011;47242;48.158;-1.586;2023-06-22T17:11:27;4.47;;;2.10;;
61373;SDS011;47242;48.158;-1.586;2023-06-22T17:13:54;4.70;;;2.42;;
61373;SDS011;47242;48.158;-1.586;2023-06-22T17:16:19;4.88;;;2.30;;
61373;SDS011;47242;48.158;-1.586;2023-06-22T17:18:47;3.78;;;2.33;;
61373;SDS011;47242;48.158;-1.586;2023-06-22T17:21:20;5.00;;;2.10;;
61373;SDS011;47242;48.158;-1.586;2023-06-22T17:23:46;4.85;;;2.58;;
61373;SDS011;47242;48.158;-1.586;2023-06-22T17:26:13;6.13;;;2.50;;
61373;SDS011;47242;48.158;-1.586;2023-06-22T17:28:45;3.88;;;2.40;;
61373;SDS011;47242;48.158;-1.586;2023-06-22T17:31:12;4.97;;;2.40;;
61373;SDS011;47242;48.158;-1.586;2023-06-22T17:33:38;5.32;;;2.22;;
61373;SDS011;47242;48.158;-1.586;2023-06-22T17:36:04;4.72;;;2.70;;
61373;SDS011;47242;48.158;-1.586;2023-06-22T17:38:35;4.90;;;2.35;;
61373;SDS011;47242;48.158;-1.586;2023-06-22T17:41:01;4.53;;;2.33;;
61373;SDS011;47242;48.158;-1.586;2023-06-22T17:43:27;5.00;;;2.55;;
61373;SDS011;47242;48.158;-1.586;2023-06-22T17:45:53;11.57;;;6.22;;
61373;SDS011;47242;48.158;-1.586;2023-06-22T17:48:24;7.45;;;3.10;;
61373;SDS011;47242;48.158;-1.586;2023-06-22T17:50:51;7.22;;;4.65;;
61373;SDS011;47242;48.158;-1.586;2023-06-22T17:53:20;10.43;;;5.43;;
61373;SDS011;47242;48.158;-1.586;2023-06-22T17:55:52;4.05;;;2.72;;
61373;SDS011;47242;48.158;-1.586;2023-06-22T17:58:18;5.10;;;2.40;;
61373;SDS011;47242;48.158;-1.586;2023-06-22T18:00:45;5.07;;;2.38;;
61373;SDS011;47242;48.158;-1.586;2023-06-22T18:03:12;4.03;;;2.20;;
61373;SDS011;47242;48.158;-1.586;2023-06-22T18:05:38;5.00;;;2.30;;
61373;SDS011;47242;48.158;-1.586;2023-06-22T18:08:11;3.75;;;1.85;;
61373;SDS011;47242;48.158;-1.586;2023-06-22T18:10:38;5.15;;;2.67;;
61373;SDS011;47242;48.158;-1.586;2023-06-22T18:13:07;4.50;;;2.38;;
61373;SDS011;47242;48.158;-1.586;2023-06-22T18:15:33;3.97;;;2.20;;
61373;SDS011;47242;48.158;-1.586;2023-06-22T18:18:00;3.63;;;2.10;;
61373;SDS011;47242;48.158;-1.586;2023-06-22T18:20:26;4.18;;;2.33;;
61373;SDS011;47242;48.158;-1.586;2023-06-22T18:22:53;4.45;;;2.38;;
61373;SDS011;47242;48.158;-1.586;2023-06-22T18:25:19;4.00;;;2.20;;
61373;SDS011;47242;48.158;-1.586;2023-06-22T18:27:46;4.78;;;2.35;;
61373;SDS011;47242;48.158;-1.586;2023-06-22T18:30:14;5.50;;;1.92;;
61373;SDS011;47242;48.158;-1.586;2023-06-22T18:32:41;3.88;;;2.08;;
61373;SDS011;47242;48.158;-1.586;2023-06-22T18:35:07;3.75;;;1.85;;
61373;SDS011;47242;48.158;-1.586;2023-06-22T18:37:34;3.95;;;1.95;;
61373;SDS011;47242;48.158;-1.586;2023-06-22T18:40:03;4.15;;;2.03;;
61373;SDS011;47242;48.158;-1.586;2023-06-22T18:42:32;4.30;;;2.15;;
61373;SDS011;47242;48.158;-1.586;2023-06-22T18:45:00;3.67;;;1.90;;
61373;SDS011;47242;48.158;-1.586;2023-06-22T18:47:29;3.83;;;2.13;;
61373;SDS011;47242;48.158;-1.586;2023-06-22T18:50:13;4.30;;;2.22;;
61373;SDS011;47242;48.158;-1.586;2023-06-22T18:53:03;4.65;;;2.25;;
61373;SDS011;47242;48.158;-1.586;2023-06-22T18:55:30;5.63;;;2.10;;
61373;SDS011;47242;48.158;-1.586;2023-06-22T18:58:14;4.22;;;2.00;;
61373;SDS011;47242;48.158;-1.586;2023-06-22T19:03:07;3.53;;;1.92;;
61373;SDS011;47242;48.158;-1.586;2023-06-22T19:05:37;3.97;;;2.17;;
61373;SDS011;47242;48.158;-1.586;2023-06-22T19:08:04;4.30;;;2.35;;
61373;SDS011;47242;48.158;-1.586;2023-06-22T19:15:37;5.68;;;2.40;;